Terminal Aerodrome Forecast
Issued by NWS

Home | Current Version | Previous Version | Text Only | Print | Product List | Glossary On
Versions: 1 2 3 4 5 6 7 8 9 10 11 12 13 14 15 16 17 18 19 20 21 22 23 24 25 26 27 28 29 30 31
000
FTPA31 PHFO 211100 RRA
TAFLNY
TAF
PHNY 211141Z 2112/2212 05018G25KT P6SM SCT010 BKN020 OVC030
     FM211800 05020G30KT P6SM SCT020 BKN030 BKN040
     FM220500 05015G23KT P6SM SCT015 BKN025 BKN040
      AMD NOT SKED=

USA.gov is the U.S. government's official web portal to all federal, state and local government web resources and services.